Portada
METAR-TAF:

METAR-TAF

Aeroports :

Macas, Equador

latitud: 02-17-57-S, longitud: 078-07-15-W, altitud: 1052 m

Observació

L'informe es va fer fa 13 minuts, a les 14:00 UTC
Vent 3 kt del Nord-Oest
Temperatura 18°C
Humitat 100%
Pressió 1020 hPa
Visibilitat: 1000 m
Cel cobert a una alçada de 1000 ft
pluja, boirina

METAR: SEMC 301400Z 31003KT 1000 -RA BR OVC010 18/18 Q1020 RMK A3013

Hora: 09:13 (14:13 UTC)


TAF: manca

Observacions i pronòstics meteorològics de més de 4000 aeroports (METAR i TAF).

Les estacions disponibles són els punts grocs i vermells al mapa.

Posi el ratolí al punt desitjat per veure el nom de l'estació.

Feu clic per veure les observacions i els pronòstics meteorològics.

Per canviar el mapa: feu clic els botons verds amb una creu de color negre per apropar; al botó verd amb un guió per allunyar la imatge; o en les fletxes verdes per a mapes adjacents.


METAR-TAF: